Terminal Aerodrome Forecast
Issued by NWS Des Moines, IA

Home | Current Version | Previous Version | Text Only | Print | Product List | Glossary On
Versions: 1 2 3 4 5 6 7 8 9 10 11 12 13 14 15 16 17 18 19 20 21
000
FTUS43 KDMX 221944 AAA
TAFDSM
TAF AMD
KDSM 221944Z 2220/2318 36009KT P6SM BKN025
     FM222030 36009KT P6SM SCT050
     FM231500 31010KT P6SM SCT250=

USA.gov is the U.S. government's official web portal to all federal, state and local government web resources and services.